createdAt,value
2017-08-18T00:00:43.863Z,9.10
2017-08-18T00:01:49.694Z,8.77
2017-08-18T00:02:55.753Z,9.73
2017-08-18T00:04:04.059Z,9.00
2017-08-18T00:05:13.600Z,8.32
2017-08-18T00:06:19.643Z,9.13
2017-08-18T00:07:25.772Z,8.00
2017-08-18T00:08:31.805Z,8.50
2017-08-18T00:09:37.968Z,8.50
2017-08-18T00:10:43.827Z,7.68
2017-08-18T00:11:49.829Z,8.93
2017-08-18T00:12:55.851Z,7.60
2017-08-18T00:14:01.996Z,8.20
2017-08-18T00:15:08.115Z,7.93
2017-08-18T00:16:14.196Z,8.93
2017-08-18T00:17:20.263Z,7.97
2017-08-18T00:18:26.328Z,8.77
2017-08-18T00:19:32.370Z,8.45
2017-08-18T00:20:38.491Z,8.75
2017-08-18T00:21:44.514Z,9.27
2017-08-18T00:22:50.562Z,8.35
2017-08-18T00:23:56.624Z,8.57
2017-08-18T00:25:08.930Z,8.25
2017-08-18T00:26:15.030Z,8.88
2017-08-18T00:27:21.085Z,8.00
2017-08-18T00:28:26.922Z,7.90
2017-08-18T00:29:32.766Z,8.40
2017-08-18T00:30:38.901Z,7.80
2017-08-18T00:31:44.927Z,7.12
2017-08-18T00:32:50.953Z,7.07
2017-08-18T00:33:56.804Z,7.82
2017-08-18T00:35:02.934Z,7.30
2017-08-18T00:36:08.656Z,6.05
2017-08-18T00:37:14.685Z,5.22
2017-08-18T00:38:20.742Z,4.75
2017-08-18T00:39:26.844Z,4.55
2017-08-18T00:40:32.998Z,4.50
2017-08-18T00:41:39.067Z,3.40
2017-08-18T00:42:44.764Z,4.35
2017-08-18T00:43:50.828Z,7.32
2017-08-18T00:44:56.858Z,4.40
2017-08-18T00:46:02.882Z,3.62
2017-08-18T00:47:08.954Z,3.70
2017-08-18T00:48:14.779Z,4.03
2017-08-18T00:49:21.347Z,3.90
2017-08-18T00:50:27.400Z,5.95
2017-08-18T00:51:33.451Z,4.20
2017-08-18T00:52:39.558Z,3.70
2017-08-18T00:53:45.417Z,4.12
2017-08-18T00:54:51.492Z,3.72
2017-08-18T00:55:57.231Z,4.82
2017-08-18T00:57:02.791Z,3.92
2017-08-18T00:58:08.828Z,4.60
2017-08-18T00:59:14.894Z,4.00
2017-08-18T01:00:20.962Z,4.57
2017-08-18T01:01:26.465Z,4.50
2017-08-18T01:02:32.593Z,3.80
2017-08-18T01:03:38.773Z,4.25
2017-08-18T01:04:44.357Z,3.65
2017-08-18T01:05:50.094Z,4.25
2017-08-18T01:06:55.320Z,4.37
2017-08-18T01:08:00.785Z,3.47
2017-08-18T01:09:06.805Z,3.58
2017-08-18T01:10:12.852Z,3.60
2017-08-18T01:11:18.908Z,3.95
2017-08-18T01:12:24.949Z,4.03
2017-08-18T01:13:31.055Z,4.82
2017-08-18T01:14:37.108Z,4.22
2017-08-18T01:15:43.190Z,3.12
2017-08-18T01:16:48.758Z,3.12
2017-08-18T01:17:54.799Z,3.97
2017-08-18T01:19:00.942Z,5.25
2017-08-18T01:20:06.610Z,3.83
2017-08-18T01:21:12.515Z,3.85
2017-08-18T01:22:18.626Z,3.70
2017-08-18T01:23:24.340Z,3.20
2017-08-18T01:24:30.449Z,6.30
2017-08-18T01:25:36.561Z,3.62
2017-08-18T01:26:42.660Z,3.87
2017-08-18T01:27:50.254Z,3.20
2017-08-18T01:28:59.488Z,3.80
2017-08-18T01:30:05.563Z,3.55
2017-08-18T01:31:11.729Z,4.10
2017-08-18T01:32:17.913Z,3.55
2017-08-18T01:33:23.993Z,3.97
2017-08-18T01:34:30.252Z,3.50
2017-08-18T01:35:36.320Z,4.53
2017-08-18T01:36:42.340Z,3.87
2017-08-18T01:37:48.366Z,3.37
2017-08-18T01:38:54.397Z,3.47
2017-08-18T01:40:00.501Z,3.75
2017-08-18T01:41:06.588Z,3.72
2017-08-18T01:42:12.642Z,3.65
2017-08-18T01:43:18.690Z,3.85
2017-08-18T01:44:24.728Z,4.70
2017-08-18T01:45:30.569Z,3.87
2017-08-18T01:46:36.669Z,4.00
2017-08-18T01:47:42.753Z,4.03
2017-08-18T01:48:50.867Z,4.75
2017-08-18T01:49:56.920Z,3.90
2017-08-18T01:51:03.042Z,4.93
2017-08-18T01:52:09.122Z,3.35
2017-08-18T01:53:15.170Z,3.97
2017-08-18T01:54:21.212Z,4.00
2017-08-18T01:55:27.280Z,4.05
2017-08-18T01:56:33.136Z,3.90
2017-08-18T01:57:39.226Z,3.65
2017-08-18T01:58:45.270Z,3.67
2017-08-18T01:59:51.340Z,3.85
2017-08-18T02:00:57.414Z,4.57
2017-08-18T02:02:03.567Z,7.20
2017-08-18T02:03:09.252Z,4.15
2017-08-18T02:04:15.303Z,4.07
2017-08-18T02:05:21.394Z,3.97
2017-08-18T02:06:27.488Z,4.72
2017-08-18T02:07:33.578Z,3.95
2017-08-18T02:08:39.699Z,3.53
2017-08-18T02:09:45.738Z,4.60
2017-08-18T02:10:51.845Z,4.12
2017-08-18T02:11:57.742Z,4.10
2017-08-18T02:13:03.806Z,4.07
2017-08-18T02:14:09.837Z,4.30
2017-08-18T02:15:15.880Z,5.68
2017-08-18T02:16:21.927Z,4.87
2017-08-18T02:17:27.979Z,4.80
2017-08-18T02:18:34.078Z,4.25
2017-08-18T02:19:40.153Z,4.90
2017-08-18T02:20:46.201Z,4.22
2017-08-18T02:21:52.258Z,5.80
2017-08-18T02:22:58.290Z,4.90
2017-08-18T02:24:04.344Z,4.07
2017-08-18T02:25:10.397Z,4.55
2017-08-18T02:26:16.423Z,4.75
2017-08-18T02:27:22.485Z,4.87
2017-08-18T02:28:28.570Z,4.97
2017-08-18T02:29:34.659Z,6.03
2017-08-18T02:30:42.544Z,6.07
2017-08-18T02:31:48.569Z,5.45
2017-08-18T02:32:54.663Z,5.45
2017-08-18T02:34:00.694Z,6.75
2017-08-18T02:35:06.818Z,5.10
2017-08-18T02:36:12.860Z,4.72
2017-08-18T02:37:18.953Z,5.60
2017-08-18T02:38:24.998Z,6.12
2017-08-18T02:39:31.026Z,5.90
2017-08-18T02:40:37.082Z,5.75
2017-08-18T02:41:43.105Z,5.90
2017-08-18T02:42:49.160Z,5.82
2017-08-18T02:43:55.265Z,5.18
2017-08-18T02:45:01.377Z,7.65
2017-08-18T02:46:07.487Z,5.00
2017-08-18T02:47:13.524Z,5.22
2017-08-18T02:48:19.571Z,5.75
2017-08-18T02:49:25.655Z,5.47
2017-08-18T02:50:31.690Z,6.32
2017-08-18T02:51:41.409Z,5.87
2017-08-18T02:52:47.691Z,6.78
2017-08-18T02:53:53.738Z,5.50
2017-08-18T02:54:59.818Z,6.20
2017-08-18T02:56:05.951Z,6.37
2017-08-18T02:57:12.044Z,6.80
2017-08-18T02:58:18.083Z,6.15
2017-08-18T02:59:24.133Z,5.72
2017-08-18T03:00:30.208Z,6.00
2017-08-18T03:01:36.061Z,6.40
2017-08-18T03:02:41.979Z,5.72
2017-08-18T03:03:48.020Z,5.43
2017-08-18T03:04:54.067Z,5.75
2017-08-18T03:06:00.122Z,5.40
2017-08-18T03:07:06.162Z,6.40
2017-08-18T03:08:12.221Z,5.87
2017-08-18T03:09:18.262Z,6.10
2017-08-18T03:10:23.941Z,6.22
2017-08-18T03:11:29.989Z,7.00
2017-08-18T03:14:18.002Z,7.50
2017-08-18T03:15:24.068Z,6.00
2017-08-18T03:21:37.946Z,6.78
2017-08-18T03:22:43.988Z,6.57
2017-08-18T03:23:50.104Z,6.20
2017-08-18T03:24:56.141Z,5.57
2017-08-18T03:26:02.243Z,5.97
2017-08-18T03:27:08.290Z,7.75
2017-08-18T03:28:14.347Z,7.03
2017-08-18T03:29:20.417Z,6.43
2017-08-18T03:30:26.473Z,7.05
2017-08-18T03:31:32.539Z,8.68
2017-08-18T03:32:38.606Z,6.97
2017-08-18T03:33:49.574Z,5.45
2017-08-18T03:35:00.566Z,5.85
2017-08-18T03:36:06.629Z,6.50
2017-08-18T03:37:12.658Z,6.80
2017-08-18T03:41:26.191Z,8.60
2017-08-18T03:44:14.878Z,6.62
2017-08-18T03:45:21.033Z,5.95
2017-08-18T03:46:27.544Z,5.97
2017-08-18T03:47:33.573Z,6.47
2017-08-18T03:48:39.621Z,8.20
2017-08-18T03:49:45.649Z,5.65
2017-08-18T03:50:51.394Z,6.35
2017-08-18T03:51:57.440Z,6.30
2017-08-18T03:53:03.589Z,6.30
2017-08-18T03:54:09.623Z,5.78
2017-08-18T03:55:16.053Z,6.32
2017-08-18T03:56:22.187Z,6.07
2017-08-18T03:57:28.255Z,6.12
2017-08-18T03:58:34.377Z,5.22
2017-08-18T03:59:40.435Z,6.05
2017-08-18T04:00:46.516Z,6.80
2017-08-18T04:02:14.502Z,6.30
2017-08-18T04:03:20.542Z,6.03
2017-08-18T04:06:03.548Z,6.00
2017-08-18T04:07:09.900Z,6.97
2017-08-18T04:08:16.749Z,6.32
2017-08-18T04:09:22.813Z,6.37
2017-08-18T04:10:28.913Z,7.82
2017-08-18T04:11:35.060Z,8.02
2017-08-18T04:12:41.105Z,6.47
2017-08-18T04:13:47.165Z,6.28
2017-08-18T04:14:53.233Z,7.30
2017-08-18T04:16:04.041Z,6.10
2017-08-18T04:17:10.149Z,7.72
2017-08-18T04:18:16.187Z,7.25
2017-08-18T04:19:22.242Z,7.50
2017-08-18T04:20:28.320Z,6.35
2017-08-18T04:21:34.454Z,7.78
2017-08-18T04:24:22.947Z,7.10
2017-08-18T04:25:29.001Z,6.82
2017-08-18T04:28:16.963Z,6.62
2017-08-18T04:29:23.183Z,7.40
2017-08-18T04:30:29.251Z,6.12
2017-08-18T04:31:35.331Z,7.75
2017-08-18T04:32:41.415Z,6.37
2017-08-18T04:33:47.505Z,8.55
2017-08-18T04:34:53.559Z,7.72
2017-08-18T04:35:58.886Z,10.07
2017-08-18T04:37:04.750Z,7.72
2017-08-18T04:38:11.760Z,7.53
2017-08-18T04:39:18.353Z,7.05
2017-08-18T04:40:24.393Z,8.15
2017-08-18T04:41:30.440Z,7.87
2017-08-18T04:42:36.527Z,9.75
2017-08-18T04:43:42.429Z,9.27
2017-08-18T04:44:49.082Z,7.65
2017-08-18T04:45:55.123Z,9.02
2017-08-18T04:47:00.987Z,8.63
2017-08-18T04:48:07.030Z,8.70
2017-08-18T04:49:13.124Z,8.38
2017-08-18T04:50:24.909Z,8.20
2017-08-18T04:53:13.155Z,8.15
2017-08-18T04:54:19.271Z,8.98
2017-08-18T04:57:14.961Z,10.75
2017-08-18T04:58:26.403Z,10.63
2017-08-18T04:59:35.157Z,11.32
2017-08-18T05:00:40.830Z,12.77
2017-08-18T05:01:46.880Z,11.93
2017-08-18T05:02:52.964Z,12.35
2017-08-18T05:03:59.017Z,11.23
2017-08-18T05:05:05.124Z,12.15
2017-08-18T05:06:11.199Z,13.13
2017-08-18T05:07:17.259Z,14.55
2017-08-18T05:08:23.315Z,15.48
2017-08-18T05:09:29.519Z,15.20
2017-08-18T05:10:35.572Z,15.93
2017-08-18T05:11:41.621Z,14.50
2017-08-18T05:12:47.660Z,17.80
2017-08-18T05:13:53.733Z,14.15
2017-08-18T05:14:59.769Z,14.50
2017-08-18T05:16:05.881Z,15.38
2017-08-18T05:17:11.952Z,14.57
2017-08-18T05:18:18.040Z,16.40
2017-08-18T05:19:24.112Z,15.88
2017-08-18T05:20:30.217Z,15.13
2017-08-18T05:21:37.152Z,16.02
2017-08-18T05:22:43.577Z,17.30
2017-08-18T05:23:49.652Z,16.87
2017-08-18T05:24:55.717Z,17.60
2017-08-18T05:26:01.911Z,16.52
2017-08-18T05:27:07.988Z,14.80
2017-08-18T05:28:14.082Z,15.10
2017-08-18T05:29:20.154Z,18.83
2017-08-18T05:30:26.212Z,17.20
2017-08-18T05:31:32.407Z,21.42
2017-08-18T05:32:38.744Z,19.65
2017-08-18T05:33:44.812Z,21.00
2017-08-18T05:34:50.881Z,20.95
2017-08-18T05:35:56.943Z,18.27
2017-08-18T05:37:03.165Z,17.92
2017-08-18T05:38:09.238Z,16.95
2017-08-18T05:39:15.310Z,15.15
2017-08-18T05:40:22.928Z,15.75
2017-08-18T05:41:32.242Z,18.73
2017-08-18T05:42:38.349Z,16.67
2017-08-18T05:43:44.452Z,16.75
2017-08-18T05:44:50.530Z,16.60
2017-08-18T05:45:56.606Z,17.00
2017-08-18T05:47:02.792Z,17.62
2017-08-18T05:48:08.952Z,14.85
2017-08-18T05:49:15.035Z,15.95
2017-08-18T05:50:21.117Z,16.98
2017-08-18T05:51:27.299Z,15.00
2017-08-18T05:52:33.366Z,15.20
2017-08-18T05:53:39.507Z,15.57
2017-08-18T05:54:45.619Z,14.55
2017-08-18T05:55:51.695Z,15.68
2017-08-18T05:56:57.820Z,14.75
2017-08-18T05:59:46.765Z,13.95
2017-08-18T06:00:59.381Z,12.60
2017-08-18T06:02:28.147Z,12.05
2017-08-18T06:03:34.027Z,14.05
2017-08-18T06:04:40.121Z,13.48
2017-08-18T06:05:46.197Z,12.90
2017-08-18T06:06:52.305Z,12.52
2017-08-18T06:07:58.361Z,12.27
2017-08-18T06:09:03.725Z,12.15
2017-08-18T06:10:09.871Z,11.45
2017-08-18T06:11:15.953Z,10.15
2017-08-18T06:12:22.009Z,9.32
2017-08-18T06:13:29.293Z,9.95
2017-08-18T06:14:35.349Z,8.45
2017-08-18T06:15:41.423Z,8.30
2017-08-18T06:16:47.445Z,7.80
2017-08-18T06:17:53.498Z,9.20
2017-08-18T06:18:59.550Z,6.80
2017-08-18T06:21:48.206Z,6.07
2017-08-18T06:22:54.047Z,5.95
2017-08-18T06:25:36.559Z,5.35
2017-08-18T06:26:42.631Z,6.37
2017-08-18T06:27:48.669Z,6.68
2017-08-18T06:28:54.707Z,8.68
2017-08-18T06:30:00.725Z,7.87
2017-08-18T06:31:06.742Z,7.95
2017-08-18T06:32:12.788Z,7.60
2017-08-18T06:33:18.802Z,8.20
2017-08-18T06:34:24.842Z,8.23
2017-08-18T06:35:30.911Z,9.27
2017-08-18T06:36:36.921Z,8.73
2017-08-18T06:37:42.982Z,8.90
2017-08-18T06:38:48.997Z,8.25
2017-08-18T06:39:55.019Z,9.48
2017-08-18T06:41:04.785Z,8.85
2017-08-18T06:42:17.141Z,8.70
2017-08-18T06:43:24.333Z,9.65
2017-08-18T06:44:30.606Z,7.97
2017-08-18T06:45:36.902Z,8.23
2017-08-18T06:46:43.299Z,7.30
2017-08-18T06:47:49.350Z,7.35
2017-08-18T06:48:55.436Z,6.95
2017-08-18T06:50:01.500Z,5.78
2017-08-18T06:51:07.569Z,7.00
2017-08-18T06:52:13.584Z,5.85
2017-08-18T06:53:19.621Z,5.78
2017-08-18T06:54:25.687Z,5.18
2017-08-18T06:55:31.712Z,6.00
2017-08-18T06:56:37.722Z,6.15
2017-08-18T06:57:43.761Z,5.72
2017-08-18T06:58:49.786Z,4.90
2017-08-18T06:59:55.872Z,4.05
2017-08-18T07:01:01.954Z,5.03
2017-08-18T07:02:07.982Z,4.05
2017-08-18T07:03:13.993Z,3.45
2017-08-18T07:04:20.041Z,4.43
2017-08-18T07:05:26.614Z,3.95
2017-08-18T07:06:32.651Z,3.50
2017-08-18T07:07:38.703Z,3.85
2017-08-18T07:08:44.734Z,3.15
2017-08-18T07:09:50.791Z,6.45
2017-08-18T07:10:56.865Z,4.57
2017-08-18T07:12:02.967Z,3.60
2017-08-18T07:13:08.982Z,3.50
2017-08-18T07:14:15.025Z,2.95
2017-08-18T07:15:21.082Z,3.85
2017-08-18T07:16:27.138Z,3.90
2017-08-18T07:17:33.176Z,2.45
2017-08-18T07:18:39.213Z,3.42
2017-08-18T07:19:45.288Z,3.87
2017-08-18T07:20:51.298Z,3.58
2017-08-18T07:21:57.358Z,3.20
2017-08-18T07:23:03.444Z,4.45
2017-08-18T07:24:09.465Z,3.70
2017-08-18T07:25:15.495Z,3.30
2017-08-18T07:26:21.580Z,3.05
2017-08-18T07:27:27.914Z,4.35
2017-08-18T07:28:33.965Z,5.15
2017-08-18T07:29:40.023Z,3.67
2017-08-18T07:30:46.078Z,3.50
2017-08-18T07:31:52.208Z,3.20
2017-08-18T07:32:58.273Z,2.75
2017-08-18T07:34:04.345Z,2.70
2017-08-18T07:35:10.411Z,2.92
2017-08-18T07:36:16.463Z,6.85
2017-08-18T07:37:22.577Z,2.70
2017-08-18T07:38:28.624Z,3.20
2017-08-18T07:39:34.681Z,2.95
2017-08-18T07:40:40.733Z,2.40
2017-08-18T07:41:46.824Z,2.83
2017-08-18T07:42:52.937Z,2.60
2017-08-18T07:43:59.013Z,2.75
2017-08-18T07:45:07.689Z,3.83
2017-08-18T07:46:13.755Z,3.15
2017-08-18T07:47:19.789Z,4.05
2017-08-18T07:48:25.903Z,2.83
2017-08-18T07:49:31.959Z,2.50
2017-08-18T07:50:38.036Z,1.83
2017-08-18T07:51:44.072Z,2.62
2017-08-18T07:52:50.105Z,3.35
2017-08-18T07:53:56.147Z,2.15
2017-08-18T07:55:02.261Z,3.67
2017-08-18T07:56:08.325Z,3.50
2017-08-18T07:57:14.385Z,2.87
2017-08-18T07:58:20.466Z,2.25
2017-08-18T07:59:26.569Z,2.37
2017-08-18T08:00:32.594Z,2.53
2017-08-18T08:01:38.673Z,3.10
2017-08-18T08:02:44.696Z,2.83
2017-08-18T08:03:50.728Z,2.12
2017-08-18T08:04:56.837Z,2.22
2017-08-18T08:06:05.906Z,2.60
2017-08-18T08:07:11.977Z,2.85
2017-08-18T08:08:18.051Z,2.72
2017-08-18T08:09:23.937Z,2.95
2017-08-18T08:10:30.070Z,1.95
2017-08-18T08:11:36.182Z,2.85
2017-08-18T08:12:42.263Z,2.20
2017-08-18T08:13:48.331Z,2.70
2017-08-18T08:14:54.376Z,2.65
2017-08-18T08:16:00.498Z,2.85
2017-08-18T08:17:06.929Z,2.67
2017-08-18T08:18:12.992Z,2.60
2017-08-18T08:19:19.042Z,3.00
2017-08-18T08:20:25.077Z,3.15
2017-08-18T08:21:31.522Z,2.40
2017-08-18T08:22:37.749Z,2.50
2017-08-18T08:23:43.862Z,3.35
2017-08-18T08:24:49.927Z,2.60
2017-08-18T08:26:00.729Z,2.40
2017-08-18T08:27:06.813Z,2.30
2017-08-18T08:28:12.835Z,2.40
2017-08-18T08:29:18.675Z,2.50
2017-08-18T08:30:24.707Z,2.97
2017-08-18T08:31:30.800Z,2.40
2017-08-18T08:32:36.847Z,4.45
2017-08-18T08:33:42.929Z,2.78
2017-08-18T08:34:48.982Z,2.75
2017-08-18T08:35:55.086Z,2.65
2017-08-18T08:37:09.369Z,2.45
2017-08-18T08:38:24.357Z,2.30
2017-08-18T08:39:30.483Z,2.42
2017-08-18T08:40:36.604Z,4.03
2017-08-18T08:41:42.673Z,2.70
2017-08-18T08:42:48.812Z,3.03
2017-08-18T08:43:54.887Z,3.10
2017-08-18T08:45:00.955Z,2.05
2017-08-18T08:46:06.694Z,2.53
2017-08-18T08:47:12.719Z,2.60
2017-08-18T08:48:18.814Z,2.80
2017-08-18T08:49:24.858Z,3.00
2017-08-18T08:50:30.909Z,3.70
2017-08-18T08:51:36.945Z,2.58
2017-08-18T08:52:43.014Z,2.70
2017-08-18T08:53:49.120Z,3.85
2017-08-18T08:54:55.185Z,2.60
2017-08-18T08:56:01.308Z,3.25
2017-08-18T08:57:07.347Z,5.32
2017-08-18T08:58:13.396Z,2.97
2017-08-18T08:59:19.505Z,3.25
2017-08-18T09:00:25.555Z,2.42
2017-08-18T09:01:31.640Z,2.75
2017-08-18T09:02:37.679Z,6.90
2017-08-18T09:03:43.773Z,3.25
2017-08-18T09:04:49.889Z,5.32
2017-08-18T09:05:55.926Z,2.40
2017-08-18T09:07:03.075Z,2.85
2017-08-18T09:08:12.182Z,2.87
2017-08-18T09:09:18.282Z,2.28
2017-08-18T09:10:24.396Z,4.18
2017-08-18T09:11:30.441Z,2.10
2017-08-18T09:12:36.513Z,2.80
2017-08-18T09:13:42.607Z,6.30
2017-08-18T09:14:48.657Z,3.30
2017-08-18T09:15:55.022Z,3.35
2017-08-18T09:17:01.114Z,3.45
2017-08-18T09:18:07.174Z,2.65
2017-08-18T09:19:13.257Z,2.85
2017-08-18T09:20:19.367Z,2.75
2017-08-18T09:21:25.416Z,2.83
2017-08-18T09:22:31.460Z,2.47
2017-08-18T09:23:37.344Z,4.40
2017-08-18T09:24:43.101Z,2.47
2017-08-18T09:25:49.207Z,3.05
2017-08-18T09:26:55.290Z,2.45
2017-08-18T09:28:07.919Z,2.57
2017-08-18T09:29:13.689Z,2.70
2017-08-18T09:30:19.725Z,2.87
2017-08-18T09:31:25.861Z,5.43
2017-08-18T09:32:31.904Z,4.55
2017-08-18T09:33:37.972Z,4.90
2017-08-18T09:34:43.988Z,4.05
2017-08-18T09:35:50.074Z,2.70
2017-08-18T09:36:56.166Z,3.37
2017-08-18T09:38:02.294Z,2.55
2017-08-18T09:39:08.059Z,3.27
2017-08-18T09:40:13.806Z,2.73
2017-08-18T09:41:19.857Z,4.20
2017-08-18T09:42:25.951Z,2.65
2017-08-18T09:43:32.016Z,2.97
2017-08-18T09:44:38.032Z,4.60
2017-08-18T09:45:44.098Z,3.00
2017-08-18T09:46:50.186Z,2.58
2017-08-18T09:48:07.168Z,2.92
2017-08-18T09:49:24.206Z,3.00
2017-08-18T09:50:41.092Z,3.03
2017-08-18T09:51:57.962Z,2.65
2017-08-18T09:53:14.947Z,2.90
2017-08-18T09:54:32.700Z,4.65
2017-08-18T09:55:51.199Z,4.53
2017-08-18T09:57:08.486Z,4.12
2017-08-18T09:58:38.459Z,2.92
2017-08-18T10:00:19.341Z,3.30
2017-08-18T10:01:26.039Z,3.40
2017-08-18T10:02:33.115Z,3.30
2017-08-18T10:03:42.466Z,5.43
2017-08-18T10:04:50.065Z,3.40
2017-08-18T10:05:56.081Z,3.55
2017-08-18T10:07:03.465Z,3.70
2017-08-18T10:08:09.106Z,3.45
2017-08-18T10:09:21.491Z,4.10
2017-08-18T10:10:28.353Z,4.20
2017-08-18T10:11:34.065Z,3.45
2017-08-18T10:12:40.498Z,5.70
2017-08-18T10:13:47.239Z,2.40
2017-08-18T10:14:54.730Z,5.30
2017-08-18T10:16:02.430Z,5.68
2017-08-18T10:17:08.425Z,2.97
2017-08-18T10:18:15.750Z,4.60
2017-08-18T10:19:23.110Z,3.00
2017-08-18T10:20:29.663Z,3.22
2017-08-18T10:21:35.887Z,3.58
2017-08-18T10:22:43.533Z,3.87
2017-08-18T10:23:51.589Z,3.28
2017-08-18T10:24:59.313Z,3.05
2017-08-18T10:26:05.858Z,3.63
2017-08-18T10:27:13.397Z,3.37
2017-08-18T10:28:20.610Z,5.40
2017-08-18T10:29:26.647Z,3.22
2017-08-18T10:30:33.215Z,4.18
2017-08-18T10:31:41.052Z,3.70
2017-08-18T10:32:48.524Z,3.60
2017-08-18T10:33:56.057Z,3.62
2017-08-18T10:35:03.069Z,4.20
2017-08-18T10:36:11.314Z,3.28
2017-08-18T10:37:18.597Z,3.55
2017-08-18T10:38:25.354Z,3.55
2017-08-18T10:39:32.300Z,4.05
2017-08-18T10:40:39.285Z,3.90
2017-08-18T10:41:45.152Z,3.40
2017-08-18T10:42:52.489Z,3.40
2017-08-18T10:43:59.292Z,3.75
2017-08-18T10:45:04.910Z,3.35
2017-08-18T10:46:10.196Z,4.00
2017-08-18T10:47:16.921Z,4.00
2017-08-18T10:48:23.287Z,3.93
2017-08-18T10:49:29.753Z,3.60
2017-08-18T10:50:36.787Z,3.40
2017-08-18T10:51:43.756Z,3.55
2017-08-18T10:52:49.636Z,4.03
2017-08-18T10:53:54.887Z,4.13
2017-08-18T10:55:00.182Z,4.10
2017-08-18T10:56:05.738Z,3.53
2017-08-18T10:57:11.301Z,4.72
2017-08-18T10:58:16.867Z,3.30
2017-08-18T10:59:22.422Z,3.80
2017-08-18T11:00:27.757Z,3.30
2017-08-18T11:01:33.352Z,3.53
2017-08-18T11:02:38.901Z,4.18
2017-08-18T11:03:44.495Z,3.80
2017-08-18T11:04:50.082Z,3.62
2017-08-18T11:05:55.438Z,4.53
2017-08-18T11:07:00.739Z,4.30
2017-08-18T11:08:06.316Z,3.67
2017-08-18T11:09:11.914Z,4.07
2017-08-18T11:10:17.172Z,3.40
2017-08-18T11:11:22.456Z,7.33
2017-08-18T11:12:27.707Z,4.40
2017-08-18T11:13:33.269Z,4.68
2017-08-18T11:14:38.970Z,4.28
2017-08-18T11:15:44.533Z,6.25
2017-08-18T11:16:50.123Z,5.87
2017-08-18T11:17:55.392Z,4.30
2017-08-18T11:19:00.683Z,3.87
2017-08-18T11:20:06.285Z,4.35
2017-08-18T11:21:11.866Z,4.18
2017-08-18T11:22:17.447Z,4.10
2017-08-18T11:23:23.066Z,4.05
2017-08-18T11:24:28.352Z,4.30
2017-08-18T11:25:33.673Z,4.37
2017-08-18T11:26:38.921Z,5.07
2017-08-18T11:27:44.671Z,5.05
2017-08-18T11:28:50.966Z,4.60
2017-08-18T11:29:56.289Z,4.53
2017-08-18T11:31:01.858Z,4.50
2017-08-18T11:32:07.531Z,5.12
2017-08-18T11:33:13.116Z,3.97
2017-08-18T11:34:18.693Z,4.85
2017-08-18T11:35:24.316Z,4.57
2017-08-18T11:36:29.899Z,4.68
2017-08-18T11:37:35.466Z,4.90
2017-08-18T11:38:41.034Z,4.70
2017-08-18T11:39:46.595Z,5.25
2017-08-18T11:40:52.199Z,4.70
2017-08-18T11:41:57.813Z,4.43
2017-08-18T11:43:03.441Z,5.75
2017-08-18T11:44:09.029Z,4.47
2017-08-18T11:45:14.567Z,4.35
2017-08-18T11:46:20.195Z,4.90
2017-08-18T11:47:25.763Z,5.07
2017-08-18T11:48:31.354Z,4.93
2017-08-18T11:49:36.664Z,5.10
2017-08-18T11:50:42.244Z,5.72
2017-08-18T11:51:47.854Z,4.93
2017-08-18T11:52:53.578Z,4.22
2017-08-18T11:53:59.393Z,6.30
2017-08-18T11:55:04.685Z,5.20
2017-08-18T11:56:10.228Z,5.18
2017-08-18T11:57:15.824Z,5.22
2017-08-18T11:58:21.381Z,4.15
2017-08-18T11:59:26.938Z,5.20
2017-08-18T12:00:32.100Z,4.80
2017-08-18T12:01:37.395Z,5.53
2017-08-18T12:02:42.734Z,5.07
2017-08-18T12:03:48.321Z,5.62
2017-08-18T12:04:53.588Z,5.40
2017-08-18T12:05:58.905Z,4.90
2017-08-18T12:07:04.163Z,4.73
2017-08-18T12:08:09.503Z,5.50
2017-08-18T12:09:14.778Z,6.00
2017-08-18T12:10:20.318Z,5.30
2017-08-18T12:11:25.617Z,5.70
2017-08-18T12:12:31.166Z,6.12
2017-08-18T12:13:36.770Z,5.07
2017-08-18T12:14:42.033Z,5.33
2017-08-18T12:15:47.292Z,5.40
2017-08-18T12:16:52.848Z,6.65
2017-08-18T12:17:58.096Z,5.63
2017-08-18T12:19:03.396Z,4.87
2017-08-18T12:20:08.712Z,9.03
2017-08-18T12:21:13.981Z,5.70
2017-08-18T12:22:19.280Z,5.83
2017-08-18T12:23:24.584Z,5.43
2017-08-18T12:24:29.899Z,5.77
2017-08-18T12:25:35.454Z,5.28
2017-08-18T12:26:40.718Z,5.00
2017-08-18T12:27:46.054Z,5.27
2017-08-18T12:28:51.341Z,6.50
2017-08-18T12:29:56.689Z,5.50
2017-08-18T12:31:02.937Z,5.83
2017-08-18T12:32:08.806Z,5.50
2017-08-18T12:33:14.114Z,5.57
2017-08-18T12:34:21.070Z,5.03
2017-08-18T12:35:29.630Z,5.93
2017-08-18T12:36:37.439Z,5.40
2017-08-18T12:37:44.877Z,5.87
2017-08-18T12:38:53.200Z,5.43
2017-08-18T12:40:01.630Z,5.03
2017-08-18T12:41:10.888Z,5.60
2017-08-18T12:42:18.060Z,5.63
2017-08-18T12:43:24.292Z,6.00
2017-08-18T12:44:29.957Z,5.60
2017-08-18T12:45:37.097Z,5.60
2017-08-18T12:46:43.402Z,5.83
2017-08-18T12:47:48.666Z,4.60
2017-08-18T12:48:55.778Z,5.37
2017-08-18T12:50:03.387Z,5.33
2017-08-18T12:51:11.387Z,5.37
2017-08-18T12:52:20.334Z,5.77
2017-08-18T12:53:28.127Z,5.37
2017-08-18T12:54:36.311Z,5.30
2017-08-18T12:55:47.834Z,5.43
2017-08-18T12:56:55.932Z,5.77
2017-08-18T12:58:05.388Z,5.40
2017-08-18T12:59:12.157Z,6.10
2017-08-18T13:00:21.949Z,5.73
2017-08-18T13:01:29.861Z,7.77
2017-08-18T13:02:37.205Z,5.93
2017-08-18T13:03:44.290Z,6.13
2017-08-18T13:04:53.091Z,7.40
2017-08-18T13:06:00.852Z,5.27
2017-08-18T13:07:09.454Z,6.37
2017-08-18T13:08:16.692Z,4.70
2017-08-18T13:09:22.151Z,6.00
2017-08-18T13:10:27.455Z,4.70
2017-08-18T13:11:32.773Z,5.33
2017-08-18T13:12:38.054Z,6.00
2017-08-18T13:13:43.623Z,4.75
2017-08-18T13:14:48.894Z,5.10
2017-08-18T13:15:54.166Z,5.07
2017-08-18T13:16:59.463Z,6.80
2017-08-18T13:18:06.311Z,6.07
2017-08-18T13:19:15.624Z,6.47
2017-08-18T13:20:23.522Z,7.37
2017-08-18T13:21:29.700Z,5.90
2017-08-18T13:22:36.885Z,5.60
2017-08-18T13:23:43.210Z,5.53
2017-08-18T13:24:50.841Z,6.70
2017-08-18T13:25:58.445Z,5.10
2017-08-18T13:27:04.536Z,5.80
2017-08-18T13:28:11.615Z,6.50
2017-08-18T13:29:19.232Z,6.07
2017-08-18T13:30:27.310Z,5.50
2017-08-18T13:31:33.621Z,6.07
2017-08-18T13:32:39.491Z,5.23
2017-08-18T13:33:47.562Z,5.57
2017-08-18T13:34:55.367Z,6.13
2017-08-18T13:36:02.690Z,5.32
2017-08-18T13:37:10.133Z,5.30
2017-08-18T13:38:18.805Z,5.55
2017-08-18T13:39:26.484Z,5.37
2017-08-18T13:40:32.297Z,5.50
2017-08-18T13:41:37.582Z,5.90
2017-08-18T13:42:42.839Z,7.00
2017-08-18T13:43:48.125Z,5.03
2017-08-18T13:44:53.414Z,4.83
2017-08-18T13:45:58.665Z,8.43
2017-08-18T13:47:03.996Z,6.10
2017-08-18T13:48:09.281Z,5.23
2017-08-18T13:49:14.568Z,8.83
2017-08-18T13:50:19.861Z,6.20
2017-08-18T13:51:25.126Z,5.33
2017-08-18T13:52:30.480Z,5.10
2017-08-18T13:53:35.803Z,5.30
2017-08-18T13:54:41.072Z,6.67
2017-08-18T13:55:46.371Z,5.03
2017-08-18T13:56:51.642Z,5.83
2017-08-18T13:57:57.061Z,5.20
2017-08-18T13:59:02.401Z,5.40
2017-08-18T14:00:07.651Z,5.47
2017-08-18T14:01:12.983Z,5.47
2017-08-18T14:02:18.260Z,5.87
2017-08-18T14:03:23.583Z,5.93
2017-08-18T14:04:28.854Z,6.00
2017-08-18T14:05:34.151Z,6.13
2017-08-18T14:06:39.506Z,5.10
2017-08-18T14:07:44.807Z,5.90
2017-08-18T14:08:50.156Z,4.80
2017-08-18T14:09:55.456Z,5.43
2017-08-18T14:11:00.727Z,5.80
2017-08-18T14:12:05.989Z,5.20
2017-08-18T14:13:11.278Z,5.33
2017-08-18T14:14:16.437Z,5.53
2017-08-18T14:15:21.712Z,5.80
2017-08-18T14:16:26.993Z,5.80
2017-08-18T14:17:32.270Z,6.00
2017-08-18T14:18:37.572Z,4.80
2017-08-18T14:19:42.884Z,5.20
2017-08-18T14:20:48.157Z,5.20
2017-08-18T14:21:53.237Z,5.53
2017-08-18T14:22:58.519Z,5.90
2017-08-18T14:24:03.785Z,5.70
2017-08-18T14:25:15.013Z,5.77
2017-08-18T14:26:26.042Z,6.30
2017-08-18T14:27:46.487Z,5.30
2017-08-18T14:28:52.237Z,5.70
2017-08-18T14:29:57.997Z,5.50
2017-08-18T14:31:03.824Z,5.77
2017-08-18T14:32:09.896Z,6.20
2017-08-18T14:33:15.692Z,6.00
2017-08-18T14:34:21.444Z,6.03
2017-08-18T14:35:27.222Z,5.30
2017-08-18T14:36:33.524Z,5.40
2017-08-18T14:37:39.851Z,6.23
2017-08-18T14:38:46.348Z,5.60
2017-08-18T14:39:53.153Z,5.47
2017-08-18T14:40:59.173Z,5.03
2017-08-18T14:42:04.969Z,5.23
2017-08-18T14:43:10.723Z,6.07
2017-08-18T14:44:17.182Z,5.93
2017-08-18T14:45:23.163Z,5.63
2017-08-18T14:46:29.346Z,6.40
2017-08-18T14:47:37.777Z,5.33
2017-08-18T14:48:44.236Z,6.13
2017-08-18T14:49:51.278Z,6.17
2017-08-18T14:50:57.028Z,5.40
2017-08-18T14:52:03.283Z,5.27
2017-08-18T14:53:09.089Z,5.20
2017-08-18T14:54:14.837Z,4.43
2017-08-18T14:55:21.344Z,5.20
2017-08-18T14:56:28.275Z,5.17
2017-08-18T14:57:35.641Z,5.23
2017-08-18T14:58:41.422Z,4.67
2017-08-18T14:59:47.162Z,4.43
2017-08-18T15:00:52.905Z,4.50
2017-08-18T15:01:58.673Z,5.00
2017-08-18T15:03:04.443Z,12.73
2017-08-18T15:04:10.260Z,4.67
2017-08-18T15:05:16.011Z,4.23
2017-08-18T15:06:21.779Z,4.17
2017-08-18T15:07:28.604Z,4.40
2017-08-18T15:08:34.546Z,4.00